Terminal Aerodrome Forecast
Issued by NWS

Home | Current Version | Previous Version | Text Only | Print | Product List | Glossary On
Versions: 1 2 3 4 5 6 7 8 9 10 11 12 13 14 15 16 17 18
509
FTUS46 KSEW 250520
TAFBFI
TAF
KBFI 250520Z 2506/2606 20010G20KT P6SM VCSH SCT030 BKN060 BKN080
     FM250900 19015G25KT P6SM -RA OVC035
     FM251200 22019G27KT P6SM -RA OVC025
     FM251800 22010KT P6SM VCSH SCT025 BKN035=

USA.gov is the U.S. government's official web portal to all federal, state and local government web resources and services.